Time;durP1;ratioP1;P1;durP2;ratioP2;P2;SDS_P1;SDS_P2;PMS_P1;PMS_P2;Temp;Humidity;BMP_temperature;BMP_pressure;BME280_temperature;BME280_humidity;BME280_pressure;Samples;Min_cycle;Max_cycle;Signal;HPM_P1;HPM_P2
2023/10/08 07:11:56;;;;;;;4.90;1.90;;;;;;;9.18;100.00;99976.16;103495;1281;615027;-48
2023/10/08 07:14:28;;;;;;;4.30;1.30;;;;;;;9.22;100.00;99993.65;105002;1268;61944;-47
2023/10/08 07:16:58;;;;;;;3.30;1.80;;;;;;;9.26;100.00;100034.56;104984;1268;59356;-48
2023/10/08 07:19:36;;;;;;;5.80;2.00;;;;;;;9.32;100.00;100080.58;105086;1266;72128;-49
2023/10/08 07:22:18;;;;;;;2.60;1.30;;;;;;;9.36;100.00;100131.48;104956;1268;64453;-47
2023/10/08 07:24:45;;;;;;;3.70;1.40;;;;;;;9.38;100.00;100188.78;104958;1269;222287;-48
2023/10/08 07:27:13;;;;;;;7.90;1.70;;;;;;;9.42;100.00;100240.23;105210;1267;61909;-49
2023/10/08 07:29:40;;;;;;;3.10;1.70;;;;;;;9.42;100.00;100278.10;105252;1263;60213;-47
2023/10/08 07:32:09;;;;;;;7.10;2.00;;;;;;;9.44;100.00;100306.12;105288;1266;72211;-47
2023/10/08 07:34:37;;;;;;;3.60;1.80;;;;;;;9.43;100.00;100302.02;105228;1267;64681;-47
2023/10/08 07:37:05;;;;;;;4.00;1.10;;;;;;;9.42;100.00;100259.00;105225;1267;72742;-47
2023/10/08 07:42:01;;;;;;;4.00;1.70;;;;;;;9.38;100.00;100105.09;105844;1253;60359;-48
2023/10/08 07:44:30;;;;;;;5.20;1.70;;;;;;;9.35;100.00;100040.21;105879;1257;72841;-46
2023/10/08 07:46:59;;;;;;;7.50;1.90;;;;;;;9.33;100.00;99970.85;105860;1257;64016;-47
2023/10/08 07:49:29;;;;;;;3.40;1.60;;;;;;;9.32;100.00;99888.92;105850;1257;72495;-47
2023/10/08 07:51:58;;;;;;;2.20;1.50;;;;;;;9.31;100.00;99830.56;105850;1257;61819;-47
2023/10/08 07:54:27;;;;;;;2.40;1.50;;;;;;;9.31;100.00;99799.56;105871;1253;60397;-48
2023/10/08 07:57:08;;;;;;;4.70;1.70;;;;;;;9.32;100.00;99765.79;105854;1252;71522;-48
2023/10/08 08:02:38;;;;;;;6.40;1.90;;;;;;;9.39;100.00;99746.70;105758;1254;72621;-47
2023/10/08 08:05:06;;;;;;;3.10;1.60;;;;;;;9.39;100.00;99707.09;105952;1257;59705;-48
2023/10/08 08:07:33;;;;;;;6.20;1.70;;;;;;;9.37;100.00;99604.51;105972;1254;60158;-47
2023/10/08 08:10:00;;;;;;;3.90;1.40;;;;;;;9.35;100.00;99542.41;105844;1254;72864;-47
2023/10/08 08:12:28;;;;;;;3.60;1.90;;;;;;;9.35;100.00;99542.39;105840;1256;65333;-47
2023/10/08 08:14:58;;;;;;;4.10;1.90;;;;;;;9.38;100.00;99561.27;105814;1254;72680;-48
2023/10/08 08:17:25;;;;;;;5.80;1.70;;;;;;;9.42;100.00;99581.46;105900;1257;60088;-48
2023/10/08 08:19:52;;;;;;;3.00;1.30;;;;;;;9.44;100.00;99561.77;106037;1254;60178;-52
2023/10/08 08:22:21;;;;;;;4.00;1.40;;;;;;;9.50;100.00;99541.48;105961;1256;73112;-48
2023/10/08 08:24:53;;;;;;;5.40;1.60;;;;;;;9.55;100.00;99498.78;106030;1258;63013;-49
2023/10/08 08:27:34;;;;;;;7.20;1.90;;;;;;;9.59;100.00;99487.98;105923;1255;72602;-47
2023/10/08 08:30:12;;;;;;;4.00;1.50;;;;;;;9.63;100.00;99471.14;105693;1259;60505;-48
2023/10/08 08:32:43;;;;;;;2.30;1.20;;;;;;;9.65;100.00;99439.39;105955;1254;59540;-49
2023/10/08 08:35:11;;;;;;;8.10;1.60;;;;;;;9.65;100.00;99395.47;105733;1259;72754;-49
2023/10/08 08:37:38;;;;;;;2.90;1.40;;;;;;;9.65;100.00;99378.09;105919;1256;64694;-49
2023/10/08 08:40:17;;;;;;;4.20;1.30;;;;;;;9.62;100.00;99372.66;105985;1254;72751;-49
2023/10/08 08:42:46;;;;;;;4.60;1.20;;;;;;;9.58;100.00;99387.42;105989;1256;60391;-46
2023/10/08 08:45:15;;;;;;;7.30;1.30;;;;;;;9.57;100.00;99415.01;105962;1257;59624;-46
2023/10/08 08:47:42;;;;;;;8.60;2.20;;;;;;;9.56;100.00;99446.91;105913;1257;72987;-48
2023/10/08 08:50:10;;;;;;;2.40;1.70;;;;;;;9.55;100.00;99459.35;105703;1260;64641;-49
2023/10/08 08:52:40;;;;;;;1.40;1.20;;;;;;;9.56;100.00;99453.80;106003;1257;72628;-48
2023/10/08 08:55:17;;;;;;;1.80;1.00;;;;;;;9.57;100.00;99444.45;106040;1257;61958;-50
2023/10/08 08:57:50;;;;;;;2.60;1.40;;;;;;;9.56;100.00;99447.94;105985;1257;59585;-51
2023/10/08 09:00:18;;;;;;;5.30;1.40;;;;;;;9.55;100.00;99454.84;106017;1257;73031;-49
2023/10/08 09:02:47;;;;;;;6.50;1.40;;;;;;;9.54;100.00;99462.98;106022;1255;64772;-49
2023/10/08 09:05:34;;;;;;;5.40;1.50;;;;;;;9.53;100.00;99454.21;105976;1256;71848;-50
2023/10/08 09:08:04;;;;;;;2.60;1.20;;;;;;;9.50;100.00;99444.33;106022;1257;60109;-51
2023/10/08 09:10:36;;;;;;;3.40;1.30;;;;;;;9.46;100.00;99439.26;106004;1252;61076;-50
2023/10/08 09:13:05;;;;;;;5.10;1.40;;;;;;;9.43;100.00;99441.26;106018;1255;70957;-49
2023/10/08 09:15:34;;;;;;;6.80;1.40;;;;;;;9.39;100.00;99454.46;106026;1257;64729;-47
2023/10/08 09:18:04;;;;;;;2.30;1.20;;;;;;;9.37;100.00;99463.00;106021;1256;72640;-49
2023/10/08 09:20:43;;;;;;;3.10;1.70;;;;;;;9.35;100.00;99462.14;105959;1257;61808;-49
2023/10/08 09:23:12;;;;;;;3.20;1.20;;;;;;;9.32;100.00;99480.52;105867;1257;59671;-49
2023/10/08 09:25:40;;;;;;;4.70;2.10;;;;;;;9.30;100.00;99492.27;105953;1252;72079;-48
2023/10/08 09:28:07;;;;;;;2.50;1.70;;;;;;;9.27;100.00;99508.18;105990;1253;63139;-49
2023/10/08 09:30:39;;;;;;;4.10;1.30;;;;;;;9.26;100.00;99510.48;106008;1255;72476;-49
2023/10/08 09:33:12;;;;;;;2.80;1.10;;;;;;;9.23;100.00;99499.52;106114;1251;61917;-49
2023/10/08 09:35:39;;;;;;;1.80;1.00;;;;;;;9.21;100.00;99511.79;106045;1255;60094;-48
2023/10/08 09:38:10;;;;;;;4.60;1.60;;;;;;;9.19;100.00;99530.45;105986;1256;72995;-48
2023/10/08 09:40:41;;;;;;;13.00;2.00;;;;;;;9.17;100.00;99550.80;105968;1257;64667;-47
2023/10/08 09:43:09;;;;;;;2.30;1.40;;;;;;;9.16;100.00;99586.30;105953;1256;72771;-49
2023/10/08 09:45:38;;;;;;;4.90;2.30;;;;;;;9.14;100.00;99609.75;106000;1257;60377;-48
2023/10/08 09:48:11;;;;;;;3.20;1.90;;;;;;;9.13;100.00;99629.92;105995;1252;60305;-48
2023/10/08 09:50:40;;;;;;;3.60;1.10;;;;;;;9.12;100.00;99616.34;106016;1256;72974;-48
2023/10/08 09:53:15;;;;;;;4.10;1.10;;;;;;;9.13;100.00;99600.14;105979;1256;64515;-48
2023/10/08 09:55:57;;;;;;;6.40;1.20;;;;;;;9.12;100.00;99596.89;105938;1256;71616;-48
2023/10/08 09:58:26;;;;;;;4.50;1.00;;;;;;;9.12;100.00;99608.96;105943;1257;60212;-48
2023/10/08 10:00:56;;;;;;;3.70;1.50;;;;;;;9.16;100.00;99601.09;105903;1255;59559;-48
2023/10/08 10:03:25;;;;;;;5.60;2.60;;;;;;;9.22;100.00;99578.72;105990;1253;71880;-48
2023/10/08 10:05:58;;;;;;;5.70;2.10;;;;;;;9.28;100.00;99600.79;105703;1257;64561;-49
2023/10/08 10:08:26;;;;;;;1.30;0.90;;;;;;;9.34;100.00;99627.32;105987;1255;72666;-48
2023/10/08 10:11:03;;;;;;;1.80;1.00;;;;;;;9.38;100.00;99663.36;105979;1257;60775;-48
2023/10/08 10:13:49;;;;;;;3.40;1.20;;;;;;;9.42;100.00;99701.67;105959;1252;60291;-47
2023/10/08 10:16:24;;;;;;;2.70;1.00;;;;;;;9.47;100.00;99714.98;105946;1251;72918;-48
2023/10/08 10:18:57;;;;;;;1.70;1.30;;;;;;;9.55;100.00;99723.56;106000;1257;64579;-48
2023/10/08 10:21:27;;;;;;;1.50;1.00;;;;;;;9.62;100.00;99732.49;105894;1256;72496;-48
2023/10/08 10:23:54;;;;;;;2.20;0.90;;;;;;;9.70;100.00;99741.95;106027;1256;59525;-48
2023/10/08 10:26:31;;;;;;;6.60;1.40;;;;;;;9.72;100.00;99751.38;106085;1257;60370;-49
2023/10/08 10:29:11;;;;;;;5.20;1.50;;;;;;;9.71;100.00;99766.39;105991;1256;73038;-46
2023/10/08 10:31:40;;;;;;;1.40;1.30;;;;;;;9.71;100.00;99779.49;106037;1261;63917;-48
2023/10/08 10:34:12;;;;;;;3.70;1.30;;;;;;;9.70;100.00;99787.62;105911;1251;72644;-48
2023/10/08 10:36:40;;;;;;;4.70;1.00;;;;;;;9.68;100.00;99798.36;105993;1258;60181;-48
2023/10/08 10:39:16;;;;;;;2.60;0.90;;;;;;;9.66;100.00;99788.39;105949;1251;60203;-46
2023/10/08 10:41:45;;;;;;;7.00;1.00;;;;;;;9.61;100.00;99792.13;106010;1255;71690;-47
2023/10/08 10:44:13;;;;;;;2.00;1.00;;;;;;;9.59;100.00;99802.18;105972;1256;63184;-48
2023/10/08 10:47:42;;;;;;;1.50;1.10;;;;;;;9.60;96.79;99791.31;105949;1265;72583;-49
2023/10/08 10:49:36;;;;;;;2.40;0.90;;;;;;;9.58;83.15;99762.75;105903;1263;60333;-48
2023/10/08 10:52:05;;;;;;;0.70;0.60;;;;;;;9.57;80.82;99782.92;106006;1253;60152;-47
2023/10/08 10:54:36;;;;;;;2.40;1.20;;;;;;;9.59;79.32;99783.58;105994;1258;72886;-47
2023/10/08 10:57:03;;;;;;;2.90;0.80;;;;;;;9.63;78.93;99804.33;105974;1257;64343;-47
2023/10/08 10:59:38;;;;;;;5.60;1.40;;;;;;;9.69;79.94;99809.50;105672;1251;72677;-47
2023/10/08 11:02:20;;;;;;;2.50;1.10;;;;;;;9.74;76.18;99771.65;105921;1256;60341;-47
2023/10/08 11:04:48;;;;;;;4.60;1.40;;;;;;;9.75;76.75;99792.49;105976;1252;60161;-47
2023/10/08 11:07:20;;;;;;;1.40;1.10;;;;;;;9.78;78.28;99814.62;105989;1257;72977;-47
2023/10/08 11:09:47;;;;;;;1.60;1.20;;;;;;;9.81;78.71;99818.70;105737;1258;65376;-47
2023/10/08 11:12:22;;;;;;;1.50;1.30;;;;;;;9.84;80.31;99830.69;105989;1251;72652;-47
2023/10/08 11:14:52;;;;;;;5.10;1.40;;;;;;;9.89;84.41;99841.92;105946;1256;60458;-46
2023/10/08 11:17:24;;;;;;;4.50;1.50;;;;;;;9.95;86.57;99825.91;105948;1251;60297;-47
2023/10/08 11:19:51;;;;;;;2.20;1.20;;;;;;;9.99;85.21;99820.83;105952;1255;72014;-47
2023/10/08 11:22:18;;;;;;;2.40;1.10;;;;;;;10.04;86.75;99825.35;105976;1256;64468;-48
2023/10/08 11:24:48;;;;;;;1.30;1.20;;;;;;;10.10;90.34;99831.39;105980;1256;71523;-47
2023/10/08 11:27:23;;;;;;;3.00;1.20;;;;;;;10.14;90.46;99825.79;105956;1255;60444;-48
2023/10/08 11:29:57;;;;;;;1.60;1.00;;;;;;;10.11;92.97;99830.86;105939;1253;60520;-47
2023/10/08 11:32:29;;;;;;;2.70;1.30;;;;;;;10.07;91.08;99823.37;105791;1253;73828;-48
2023/10/08 11:34:59;;;;;;;3.50;1.20;;;;;;;10.02;94.53;99834.70;105950;1255;65454;-48
2023/10/08 11:37:30;;;;;;;5.50;1.70;;;;;;;10.01;94.89;99820.77;105989;1252;72532;-48
2023/10/08 11:39:59;;;;;;;2.40;1.30;;;;;;;10.02;98.35;99830.05;106021;1256;60328;-50
2023/10/08 11:44:59;;;;;;;2.80;1.20;;;;;;;10.01;95.86;99820.09;105931;1251;73961;-46
2023/10/08 11:47:35;;;;;;;3.60;1.40;;;;;;;9.99;99.58;99832.38;105967;1257;65433;-47
2023/10/08 11:50:18;;;;;;;3.00;1.10;;;;;;;9.97;100.00;99828.80;106082;1257;72655;-47
2023/10/08 11:52:46;;;;;;;4.20;1.20;;;;;;;9.95;100.00;99815.41;105977;1254;60451;-47
2023/10/08 11:55:19;;;;;;;3.30;1.30;;;;;;;9.90;100.00;99812.27;106020;1251;60437;-48
2023/10/08 11:57:48;;;;;;;1.80;1.00;;;;;;;9.85;100.00;99814.98;105973;1256;73872;-47
2023/10/08 12:00:19;;;;;;;1.50;1.20;;;;;;;9.80;100.00;99806.65;105977;1251;64506;-47
2023/10/08 12:03:01;;;;;;;1.20;1.10;;;;;;;9.76;100.00;99808.64;105925;1255;72701;-46
2023/10/08 12:05:29;;;;;;;4.30;1.40;;;;;;;9.72;100.00;99814.61;105986;1257;60447;-47
2023/10/08 12:07:57;;;;;;;1.70;1.20;;;;;;;9.66;100.00;99816.15;106051;1255;60609;-47
2023/10/08 12:10:24;;;;;;;2.30;1.40;;;;;;;9.62;100.00;99807.44;106008;1252;73842;-48
2023/10/08 12:12:54;;;;;;;2.50;1.20;;;;;;;9.76;93.91;99797.78;106008;1256;66015;-47
2023/10/08 12:15:21;;;;;;;3.00;1.20;;;;;;;10.04;87.37;99787.23;105910;1251;72657;-47
2023/10/08 12:18:08;;;;;;;1.80;1.10;;;;;;;10.19;81.85;99782.17;105951;1256;60383;-47
2023/10/08 12:20:38;;;;;;;11.50;1.50;;;;;;;10.15;77.72;99763.85;105989;1251;60437;-47
2023/10/08 12:23:05;;;;;;;1.80;1.00;;;;;;;10.06;75.43;99769.42;106002;1257;73853;-46
2023/10/08 12:25:32;;;;;;;6.20;0.90;;;;;;;9.99;72.27;99725.15;105969;1257;65355;-47
2023/10/08 12:28:04;;;;;;;4.50;1.10;;;;;;;9.91;71.81;99747.42;105974;1251;71735;-48
2023/10/08 12:30:31;;;;;;;1.80;1.10;;;;;;;9.87;72.34;99785.81;105972;1255;60350;-48
2023/10/08 12:32:59;;;;;;;5.00;1.40;;;;;;;9.81;73.76;99826.79;106028;1251;60399;-47
2023/10/08 12:35:29;;;;;;;1.50;1.00;;;;;;;9.82;71.83;99767.65;105970;1256;73846;-47
2023/10/08 12:37:56;;;;;;;2.20;1.20;;;;;;;9.97;70.18;99731.95;106022;1251;63998;-47
2023/10/08 12:40:23;;;;;;;3.90;1.00;;;;;;;10.10;69.74;99737.27;106025;1252;72577;-47
2023/10/08 12:42:54;;;;;;;1.60;1.10;;;;;;;10.09;69.83;99757.14;105933;1257;60517;-47
2023/10/08 12:45:21;;;;;;;5.20;0.90;;;;;;;10.00;70.95;99789.58;106116;1251;60525;-46
2023/10/08 12:47:51;;;;;;;1.70;0.90;;;;;;;9.91;71.21;99801.02;105938;1255;73813;-47
2023/10/08 12:50:42;;;;;;;4.20;0.90;;;;;;;9.85;69.92;99767.93;105997;1257;64568;-48
2023/10/08 12:53:11;;;;;;;5.00;1.00;;;;;;;9.78;69.46;99761.38;106010;1255;72692;-47
2023/10/08 12:55:41;;;;;;;3.70;1.40;;;;;;;9.73;69.62;99779.09;106004;1251;60506;-47
2023/10/08 12:58:10;;;;;;;1.60;0.90;;;;;;;9.71;69.80;99788.25;105955;1257;60322;-47
2023/10/08 13:00:37;;;;;;;4.10;0.90;;;;;;;9.71;70.37;99807.05;105939;1256;73843;-48
2023/10/08 13:03:22;;;;;;;3.10;1.20;;;;;;;9.71;69.11;99766.71;105939;1256;64353;-47
2023/10/08 13:05:54;;;;;;;1.00;0.90;;;;;;;9.73;69.52;99794.95;105975;1252;72644;-48
2023/10/08 13:08:21;;;;;;;1.30;1.10;;;;;;;9.75;69.73;99798.69;105992;1256;60410;-47
2023/10/08 13:10:48;;;;;;;1.50;0.90;;;;;;;9.87;70.04;99801.99;106004;1251;60396;-48
2023/10/08 13:13:15;;;;;;;2.20;1.00;;;;;;;10.00;69.94;99788.91;105932;1251;73698;-48
2023/10/08 13:15:42;;;;;;;1.70;1.00;;;;;;;9.99;69.75;99786.00;105957;1257;64531;-48
2023/10/08 13:18:09;;;;;;;2.60;1.00;;;;;;;9.89;69.22;99777.81;105934;1251;72686;-47
2023/10/08 13:20:36;;;;;;;2.00;0.70;;;;;;;9.80;68.84;99772.36;105911;1256;60421;-47
2023/10/08 13:23:06;;;;;;;3.80;1.00;;;;;;;9.71;69.64;99805.17;105977;1251;60417;-48
2023/10/08 13:25:39;;;;;;;1.60;0.90;;;;;;;9.60;70.72;99828.67;105921;1258;72463;-48
2023/10/08 13:28:09;;;;;;;0.90;0.70;;;;;;;9.51;71.22;99832.17;105940;1254;64489;-48
2023/10/08 13:30:37;;;;;;;2.50;1.00;;;;;;;9.53;70.17;99803.52;105944;1251;72718;-48
